Aérodrome :
LOGIN :

S'inscrire | Disclaimer

   EN    FR    IT 

 










Légende :    VFR   VFR Marginal   IFR   IFR Intensif   IFR Très Intensif
Visi : 
Plafond : 
>= 8 km
>= 3000ft
5 à 8 km
1000 à 3000 ft
1500m à 5 km
500 à 1000 ft
800 à 1500m
200 à 500 ft
< 800m
< 200 ft
Symboles :   Orages  Brouillard  Fortes neiges  Fortes précipitations  Vent > 20 kt
SIGMETs :   Divers  Orages  Givrage  Turbulence  Onde Orograph.  Cendres Volcan.







- Altitude de l'aérodrome : 1411 ft
- Code IATA : GVA


LSGG - Genève Cointrin

DERNIER METAR :
  • 222320Z AUTO 17004KT 9999 // FEW052 BKN059 08/08 Q1022 NOSIG

METARs EXPIRÉS :
  • 222250Z AUTO 27004KT 240V300 9999 FEW024 09/08 Q1022 NOSIG
  • 222220Z 30004KT 9999 -SHRA FEW015 SCT040 BKN050 09/09 Q1021 NOSIG
  • 222150Z 25002KT 9999 FEW015 SCT040 BKN050 09/08 Q1020 NOSIG
  • 222120Z 25005KT 9999 FEW015 SCT040 BKN050 09/08 Q1020 NOSIG
  • 222050Z 21007KT 9999 -SHRA FEW040 BKN050 BKN080 10/08 Q1019 NOSIG

TAF TAF LSGG
Valide du 23 à 00h jusqu'au 24 à 06h UTC


222325Z 2300/2406 VRB03KT 9999 BKN060 TX09/2315Z TN03/2306Z TN01/2406Z
PROB30 2306/2309 1500 BCFG
PROB40 2400/2403 0800 FG VV002
ATIS : +41 22 417 40 81
Pas de NOTAMs connus pour ce terrain.



MET'MAP, la Météo Aéronautique d'un coup d'oeil ! - Copyright ORBIFLY Décembre 2007 - Disclaimer

ORBIFLY MET'MAP TEAM :

Programmation & Développement : Alexandra Zaïnal
Conception & Développement : Baudouin d'Aumeries
Co-Programmation & Développement : Marc-Olivier Méhu
Soutien technique & logistique : Manuel Goepfert

Contact : metmap@orbifly.com




SOURCES & CREDITS :

   NOAA